NCAR-RAP Real-Time Weather Data

Output produced by METARs form (23 February 2020  02:10 UTC)
found at http://weather.rap.ucar.edu/surface/
 
KBOS 230154Z 28008KT 10SM CLR 05/M08 A3015 RMK AO2 SLP208 T00501083
KBOS 230054Z 29007KT 10SM CLR 06/M09 A3014 RMK AO2 SLP206 T00561089
KBOS 222354Z 30009KT 10SM CLR 07/M09 A3013 RMK AO2 SLP202 T00671089 10094 20067 53018